RYR6956 EIKY-EGCC
Flight info
| Callsign | RYR6956 |
|---|---|
| Flight time | 0h 55m |
| Altitude | 35000 |
| Route | SHA3D SHA DCT BOFUM Q37 MALUD |
| Aircraft | B38M/M-SADE3FGILRWY/SB1 |
Departure
| Time | 2026-04-23 19:20 |
|---|---|
| Airport | Kerry Airport (EIKY) |
Arrival
| Time | 2026-04-23 20:16 |
|---|---|
| Airport | Manchester Airport (EGCC) |
| Time | Latitude | Longitude | Altitude | Speed | Heading |
|---|---|---|---|---|---|
| 2026-04-23 19:14 | 52.18093 | -9.53677 | 116 ft | 0 kts | 358° |
| 2026-04-23 19:14 | 52.18081 | -9.53677 | 116 ft | 4 kts | 18° |
| 2026-04-23 19:15 | 52.18072 | -9.53692 | 115 ft | 4 kts | 109° |
| 2026-04-23 19:15 | 52.18078 | -9.53709 | 114 ft | 1 kts | 141° |
| 2026-04-23 19:15 | 52.18082 | -9.53713 | 115 ft | 0 kts | 141° |
| 2026-04-23 19:18 | 52.18075 | -9.53704 | 114 ft | 3 kts | 141° |
| 2026-04-23 19:18 | 52.18053 | -9.53677 | 115 ft | 5 kts | 147° |
| 2026-04-23 19:18 | 52.18014 | -9.53639 | 116 ft | 8 kts | 150° |
| 2026-04-23 19:18 | 52.17955 | -9.53600 | 117 ft | 11 kts | 161° |
| 2026-04-23 19:19 | 52.17817 | -9.53639 | 114 ft | 13 kts | 229° |
| 2026-04-23 19:19 | 52.17788 | -9.53732 | 116 ft | 3 kts | 323° |
| 2026-04-23 19:20 | 52.17823 | -9.53647 | 115 ft | 23 kts | 71° |
| 2026-04-23 19:20 | 52.17981 | -9.52900 | 123 ft | 113 kts | 71° |
| 2026-04-23 19:20 | 52.18315 | -9.51355 | 406 ft | 164 kts | 75° |
| 2026-04-23 19:20 | 52.18704 | -9.49468 | 1310 ft | 187 kts | 77° |
| 2026-04-23 19:21 | 52.19135 | -9.47378 | 2374 ft | 200 kts | 78° |
| 2026-04-23 19:21 | 52.20079 | -9.42742 | 3851 ft | 227 kts | 80° |
| 2026-04-23 19:21 | 52.20576 | -9.40284 | 3908 ft | 231 kts | 72° |
| 2026-04-23 19:22 | 52.21525 | -9.38048 | 3950 ft | 253 kts | 52° |
| 2026-04-23 19:22 | 52.22991 | -9.36323 | 3970 ft | 268 kts | 32° |
| 2026-04-23 19:22 | 52.26624 | -9.34320 | 4176 ft | 272 kts | 39° |
| 2026-04-23 19:23 | 52.28171 | -9.32559 | 4235 ft | 272 kts | 40° |
| 2026-04-23 19:23 | 52.29758 | -9.30865 | 4247 ft | 273 kts | 39° |
| 2026-04-23 19:23 | 52.31369 | -9.29205 | 4247 ft | 274 kts | 38° |
| 2026-04-23 19:24 | 52.34626 | -9.25922 | 5373 ft | 273 kts | 37° |
| 2026-04-23 19:24 | 52.36261 | -9.24290 | 6595 ft | 279 kts | 36° |
| 2026-04-23 19:24 | 52.39644 | -9.20936 | 8798 ft | 288 kts | 35° |
| 2026-04-23 19:25 | 52.43139 | -9.17471 | 10824 ft | 303 kts | 34° |
| 2026-04-23 19:25 | 52.46961 | -9.13675 | 12108 ft | 336 kts | 34° |
| 2026-04-23 19:26 | 52.51031 | -9.09627 | 13893 ft | 349 kts | 34° |
| 2026-04-23 19:26 | 52.53124 | -9.07540 | 14696 ft | 355 kts | 34° |
| 2026-04-23 19:27 | 52.57394 | -9.03278 | 16294 ft | 364 kts | 34° |
| 2026-04-23 19:27 | 52.64002 | -8.96661 | 18582 ft | 377 kts | 34° |
| 2026-04-23 19:28 | 52.68535 | -8.92112 | 19865 ft | 385 kts | 34° |
| 2026-04-23 19:28 | 52.72424 | -8.86221 | 21109 ft | 382 kts | 64° |
| 2026-04-23 19:29 | 52.73586 | -8.82264 | 21694 ft | 385 kts | 68° |
| 2026-04-23 19:29 | 52.75802 | -8.74118 | 22910 ft | 392 kts | 69° |
| 2026-04-23 19:30 | 52.77986 | -8.65762 | 24056 ft | 400 kts | 69° |
| 2026-04-23 19:30 | 52.79078 | -8.61530 | 24549 ft | 403 kts | 69° |
| 2026-04-23 19:30 | 52.81284 | -8.52936 | 25514 ft | 409 kts | 69° |
| 2026-04-23 19:31 | 52.82398 | -8.48579 | 25979 ft | 413 kts | 69° |
| 2026-04-23 19:31 | 52.83517 | -8.44199 | 26454 ft | 416 kts | 69° |
| 2026-04-23 19:31 | 52.84644 | -8.39773 | 26921 ft | 419 kts | 69° |
| 2026-04-23 19:31 | 52.85777 | -8.35320 | 27363 ft | 422 kts | 69° |
| 2026-04-23 19:32 | 52.86915 | -8.30834 | 27811 ft | 425 kts | 69° |
| 2026-04-23 19:32 | 52.88063 | -8.26302 | 28241 ft | 428 kts | 69° |
| 2026-04-23 19:32 | 52.89214 | -8.21747 | 28658 ft | 431 kts | 69° |
| 2026-04-23 19:32 | 52.90373 | -8.17150 | 29086 ft | 434 kts | 69° |
| 2026-04-23 19:33 | 52.91537 | -8.12528 | 29497 ft | 437 kts | 69° |
| 2026-04-23 19:33 | 52.92708 | -8.07866 | 29900 ft | 440 kts | 69° |
| 2026-04-23 19:33 | 52.95067 | -7.98443 | 30652 ft | 445 kts | 69° |
| 2026-04-23 19:34 | 52.96255 | -7.93683 | 31000 ft | 447 kts | 69° |
| 2026-04-23 19:34 | 52.97430 | -7.88964 | 31333 ft | 450 kts | 69° |
| 2026-04-23 19:34 | 52.99827 | -7.79309 | 32009 ft | 454 kts | 69° |
| 2026-04-23 19:35 | 53.01029 | -7.74453 | 32344 ft | 456 kts | 69° |
| 2026-04-23 19:35 | 53.02238 | -7.69556 | 32672 ft | 459 kts | 69° |
| 2026-04-23 19:35 | 53.03449 | -7.64639 | 33007 ft | 461 kts | 69° |
| 2026-04-23 19:35 | 53.04664 | -7.59697 | 33334 ft | 463 kts | 69° |
| 2026-04-23 19:36 | 53.05880 | -7.54737 | 33740 ft | 463 kts | 69° |
| 2026-04-23 19:36 | 53.07091 | -7.49788 | 34202 ft | 462 kts | 69° |
| 2026-04-23 19:36 | 53.08296 | -7.44850 | 34602 ft | 461 kts | 69° |
| 2026-04-23 19:36 | 53.09500 | -7.39907 | 34984 ft | 460 kts | 69° |
| 2026-04-23 19:37 | 53.10699 | -7.34972 | 35295 ft | 461 kts | 69° |
| 2026-04-23 19:37 | 53.13091 | -7.25098 | 35338 ft | 458 kts | 69° |
| 2026-04-23 19:38 | 53.15462 | -7.15263 | 35324 ft | 457 kts | 69° |
| 2026-04-23 19:38 | 53.17837 | -7.05365 | 35329 ft | 457 kts | 69° |
| 2026-04-23 19:39 | 53.20194 | -6.95501 | 35337 ft | 457 kts | 69° |
| 2026-04-23 19:39 | 53.22538 | -6.85646 | 35341 ft | 457 kts | 69° |
| 2026-04-23 19:40 | 53.24874 | -6.75778 | 35345 ft | 457 kts | 69° |
| 2026-04-23 19:40 | 53.27197 | -6.65921 | 35347 ft | 457 kts | 69° |
| 2026-04-23 19:41 | 53.29519 | -6.56022 | 35348 ft | 457 kts | 69° |
| 2026-04-23 19:41 | 53.31832 | -6.46115 | 35346 ft | 457 kts | 69° |
| 2026-04-23 19:42 | 53.34138 | -6.36194 | 35346 ft | 457 kts | 69° |
| 2026-04-23 19:42 | 53.36431 | -6.26284 | 35374 ft | 457 kts | 69° |
| 2026-04-23 19:43 | 53.38713 | -6.16369 | 35374 ft | 456 kts | 69° |
| 2026-04-23 19:43 | 53.40987 | -6.06451 | 35372 ft | 456 kts | 69° |
| 2026-04-23 19:44 | 53.43251 | -5.96525 | 35372 ft | 455 kts | 69° |
| 2026-04-23 19:44 | 53.45503 | -5.86607 | 35368 ft | 455 kts | 69° |
| 2026-04-23 19:45 | 53.47749 | -5.76682 | 35367 ft | 454 kts | 69° |
| 2026-04-23 19:45 | 53.49983 | -5.66764 | 35370 ft | 454 kts | 69° |
| 2026-04-23 19:46 | 53.52210 | -5.56835 | 35369 ft | 454 kts | 69° |
| 2026-04-23 19:46 | 53.53858 | -5.46612 | 35374 ft | 453 kts | 79° |
| 2026-04-23 19:46 | 53.54269 | -5.41448 | 35181 ft | 441 kts | 85° |
| 2026-04-23 19:47 | 53.54389 | -5.38054 | 34866 ft | 438 kts | 88° |
| 2026-04-23 19:47 | 53.53884 | -5.31288 | 34083 ft | 437 kts | 104° |
| 2026-04-23 19:47 | 53.53188 | -5.26360 | 33463 ft | 434 kts | 96° |
| 2026-04-23 19:47 | 53.53026 | -5.21293 | 32863 ft | 432 kts | 91° |
| 2026-04-23 19:48 | 53.52880 | -5.16254 | 32327 ft | 429 kts | 92° |
| 2026-04-23 19:48 | 53.52725 | -5.11332 | 31782 ft | 427 kts | 92° |
| 2026-04-23 19:48 | 53.52571 | -5.06368 | 31297 ft | 424 kts | 92° |
| 2026-04-23 19:48 | 53.52415 | -5.01380 | 30813 ft | 420 kts | 92° |
| 2026-04-23 19:49 | 53.52263 | -4.96552 | 30305 ft | 418 kts | 92° |
| 2026-04-23 19:49 | 53.52105 | -4.91629 | 29730 ft | 415 kts | 92° |
| 2026-04-23 19:49 | 53.51949 | -4.86807 | 29240 ft | 411 kts | 92° |
| 2026-04-23 19:49 | 53.51792 | -4.82022 | 28679 ft | 409 kts | 92° |
| 2026-04-23 19:50 | 53.51641 | -4.77462 | 28278 ft | 404 kts | 92° |
| 2026-04-23 19:50 | 53.51484 | -4.72784 | 27832 ft | 400 kts | 92° |
| 2026-04-23 19:50 | 53.51326 | -4.68141 | 27378 ft | 396 kts | 92° |
| 2026-04-23 19:50 | 53.51168 | -4.63540 | 26927 ft | 393 kts | 92° |
| 2026-04-23 19:51 | 53.51009 | -4.58972 | 26489 ft | 390 kts | 92° |
| 2026-04-23 19:51 | 53.50850 | -4.54439 | 26052 ft | 387 kts | 93° |
| 2026-04-23 19:51 | 53.50690 | -4.49936 | 25626 ft | 385 kts | 93° |
| 2026-04-23 19:51 | 53.50532 | -4.45531 | 25209 ft | 382 kts | 93° |
| 2026-04-23 19:52 | 53.50423 | -4.42524 | 24927 ft | 380 kts | 93° |
| 2026-04-23 19:52 | 53.50210 | -4.36672 | 24388 ft | 377 kts | 93° |
| 2026-04-23 19:52 | 53.50047 | -4.32284 | 23984 ft | 375 kts | 93° |
| 2026-04-23 19:52 | 53.49884 | -4.27929 | 23518 ft | 373 kts | 93° |
| 2026-04-23 19:53 | 53.49721 | -4.23599 | 23103 ft | 370 kts | 93° |
| 2026-04-23 19:53 | 53.49558 | -4.19311 | 22717 ft | 366 kts | 94° |
| 2026-04-23 19:53 | 53.49395 | -4.15064 | 22340 ft | 362 kts | 94° |
| 2026-04-23 19:53 | 53.49232 | -4.10871 | 21967 ft | 358 kts | 94° |
| 2026-04-23 19:54 | 53.49069 | -4.06715 | 21595 ft | 355 kts | 94° |
| 2026-04-23 19:54 | 53.48908 | -4.02604 | 21237 ft | 351 kts | 94° |
| 2026-04-23 19:54 | 53.48799 | -3.99852 | 20994 ft | 349 kts | 94° |
| 2026-04-23 19:54 | 53.48548 | -3.95866 | 20601 ft | 347 kts | 104° |
| 2026-04-23 19:55 | 53.47784 | -3.91995 | 20224 ft | 343 kts | 109° |
| 2026-04-23 19:55 | 53.47028 | -3.88282 | 19907 ft | 340 kts | 109° |
| 2026-04-23 19:55 | 53.46262 | -3.84547 | 19568 ft | 337 kts | 109° |
| 2026-04-23 19:55 | 53.45498 | -3.80845 | 19215 ft | 334 kts | 110° |
| 2026-04-23 19:56 | 53.44729 | -3.77130 | 18874 ft | 332 kts | 110° |
| 2026-04-23 19:56 | 53.43974 | -3.73492 | 18511 ft | 329 kts | 110° |
| 2026-04-23 19:56 | 53.43222 | -3.69873 | 18132 ft | 327 kts | 110° |
| 2026-04-23 19:56 | 53.42478 | -3.66298 | 17787 ft | 323 kts | 110° |
| 2026-04-23 19:57 | 53.41747 | -3.62797 | 17467 ft | 320 kts | 110° |
| 2026-04-23 19:57 | 53.41263 | -3.59121 | 16963 ft | 327 kts | 95° |
| 2026-04-23 19:57 | 53.41103 | -3.55264 | 16607 ft | 329 kts | 96° |
| 2026-04-23 19:57 | 53.40932 | -3.51481 | 16229 ft | 331 kts | 96° |
| 2026-04-23 19:58 | 53.40759 | -3.47607 | 15826 ft | 330 kts | 96° |
| 2026-04-23 19:58 | 53.40589 | -3.43779 | 15411 ft | 330 kts | 96° |
| 2026-04-23 19:58 | 53.40416 | -3.39941 | 14999 ft | 329 kts | 96° |
| 2026-04-23 19:58 | 53.40244 | -3.36127 | 14574 ft | 325 kts | 96° |
| 2026-04-23 19:59 | 53.40073 | -3.32371 | 14165 ft | 323 kts | 96° |
| 2026-04-23 19:59 | 53.39902 | -3.28632 | 13712 ft | 322 kts | 96° |
| 2026-04-23 19:59 | 53.39730 | -3.24907 | 13280 ft | 320 kts | 96° |
| 2026-04-23 19:59 | 53.39561 | -3.21254 | 12882 ft | 309 kts | 96° |
| 2026-04-23 20:00 | 53.39395 | -3.17711 | 12497 ft | 301 kts | 96° |
| 2026-04-23 20:00 | 53.39362 | -3.14232 | 12058 ft | 301 kts | 82° |
| 2026-04-23 20:00 | 53.40089 | -3.10975 | 11640 ft | 299 kts | 60° |
| 2026-04-23 20:00 | 53.41162 | -3.07965 | 11285 ft | 304 kts | 56° |
| 2026-04-23 20:01 | 53.42603 | -3.05405 | 11066 ft | 294 kts | 44° |
| 2026-04-23 20:01 | 53.43784 | -3.02751 | 10809 ft | 279 kts | 67° |
| 2026-04-23 20:01 | 53.44525 | -2.99794 | 10436 ft | 272 kts | 66° |
| 2026-04-23 20:01 | 53.45348 | -2.96944 | 10029 ft | 274 kts | 64° |
| 2026-04-23 20:02 | 53.46229 | -2.94085 | 9586 ft | 278 kts | 63° |
| 2026-04-23 20:02 | 53.47146 | -2.91221 | 9155 ft | 278 kts | 63° |
| 2026-04-23 20:02 | 53.48069 | -2.88393 | 8732 ft | 276 kts | 62° |
| 2026-04-23 20:02 | 53.48994 | -2.85586 | 8315 ft | 274 kts | 62° |
| 2026-04-23 20:03 | 53.49924 | -2.82785 | 7901 ft | 276 kts | 62° |
| 2026-04-23 20:03 | 53.50861 | -2.79973 | 7594 ft | 274 kts | 62° |
| 2026-04-23 20:03 | 53.51750 | -2.77288 | 7484 ft | 265 kts | 64° |
| 2026-04-23 20:03 | 53.52196 | -2.74342 | 7454 ft | 252 kts | 92° |
| 2026-04-23 20:04 | 53.51751 | -2.71599 | 7430 ft | 241 kts | 122° |
| 2026-04-23 20:04 | 53.50572 | -2.69665 | 7403 ft | 239 kts | 152° |
| 2026-04-23 20:04 | 53.48967 | -2.69019 | 7403 ft | 240 kts | 182° |
| 2026-04-23 20:04 | 53.47377 | -2.69837 | 7404 ft | 243 kts | 211° |
| 2026-04-23 20:05 | 53.46035 | -2.71589 | 7418 ft | 246 kts | 219° |
| 2026-04-23 20:05 | 53.44743 | -2.73467 | 7419 ft | 246 kts | 220° |
| 2026-04-23 20:05 | 53.43449 | -2.75356 | 7409 ft | 246 kts | 220° |
| 2026-04-23 20:05 | 53.42146 | -2.77258 | 7079 ft | 253 kts | 220° |
| 2026-04-23 20:06 | 53.40795 | -2.79234 | 6557 ft | 262 kts | 219° |
| 2026-04-23 20:06 | 53.39373 | -2.81218 | 6027 ft | 269 kts | 210° |
| 2026-04-23 20:06 | 53.37618 | -2.82242 | 5497 ft | 271 kts | 183° |
| 2026-04-23 20:06 | 53.35734 | -2.81933 | 5036 ft | 273 kts | 166° |
| 2026-04-23 20:07 | 53.33919 | -2.81188 | 4948 ft | 262 kts | 165° |
| 2026-04-23 20:07 | 53.32238 | -2.80428 | 4975 ft | 237 kts | 158° |
| 2026-04-23 20:07 | 53.30869 | -2.79182 | 5027 ft | 213 kts | 146° |
| 2026-04-23 20:07 | 53.29689 | -2.77844 | 4921 ft | 199 kts | 144° |
| 2026-04-23 20:08 | 53.28569 | -2.76561 | 4682 ft | 192 kts | 144° |
| 2026-04-23 20:08 | 53.27482 | -2.75316 | 4425 ft | 187 kts | 145° |
| 2026-04-23 20:08 | 53.26419 | -2.74104 | 4185 ft | 184 kts | 145° |
| 2026-04-23 20:08 | 53.25366 | -2.72909 | 4012 ft | 183 kts | 144° |
| 2026-04-23 20:09 | 53.24321 | -2.71709 | 3957 ft | 182 kts | 141° |
| 2026-04-23 20:09 | 53.23632 | -2.69991 | 3909 ft | 181 kts | 103° |
| 2026-04-23 20:09 | 53.23548 | -2.67893 | 3991 ft | 184 kts | 91° |
| 2026-04-23 20:09 | 53.23582 | -2.65753 | 4006 ft | 185 kts | 90° |
| 2026-04-23 20:10 | 53.23611 | -2.64329 | 4000 ft | 185 kts | 90° |
| 2026-04-23 20:10 | 53.23653 | -2.62219 | 3820 ft | 185 kts | 89° |
| 2026-04-23 20:10 | 53.23686 | -2.60437 | 3613 ft | 184 kts | 90° |
| 2026-04-23 20:10 | 53.23728 | -2.58301 | 3348 ft | 183 kts | 90° |
| 2026-04-23 20:11 | 53.23773 | -2.56177 | 3086 ft | 182 kts | 90° |
| 2026-04-23 20:11 | 53.23822 | -2.54085 | 2977 ft | 179 kts | 90° |
| 2026-04-23 20:11 | 53.23907 | -2.52111 | 2964 ft | 163 kts | 79° |
| 2026-04-23 20:11 | 53.24350 | -2.50374 | 3022 ft | 164 kts | 61° |
| 2026-04-23 20:12 | 53.25020 | -2.48830 | 3020 ft | 165 kts | 54° |
| 2026-04-23 20:12 | 53.25740 | -2.47336 | 3003 ft | 165 kts | 54° |
| 2026-04-23 20:12 | 53.26462 | -2.45851 | 2809 ft | 164 kts | 54° |
| 2026-04-23 20:12 | 53.27179 | -2.44375 | 2603 ft | 163 kts | 54° |
| 2026-04-23 20:13 | 53.27893 | -2.42908 | 2403 ft | 162 kts | 54° |
| 2026-04-23 20:13 | 53.28600 | -2.41451 | 2203 ft | 161 kts | 54° |
| 2026-04-23 20:13 | 53.29305 | -2.39999 | 1987 ft | 159 kts | 54° |
| 2026-04-23 20:13 | 53.30000 | -2.38570 | 1764 ft | 159 kts | 54° |
| 2026-04-23 20:14 | 53.30675 | -2.37179 | 1561 ft | 147 kts | 54° |
| 2026-04-23 20:14 | 53.31303 | -2.35884 | 1372 ft | 140 kts | 54° |
| 2026-04-23 20:14 | 53.31913 | -2.34624 | 1173 ft | 139 kts | 54° |
| 2026-04-23 20:14 | 53.32521 | -2.33368 | 947 ft | 139 kts | 52° |
| 2026-04-23 20:15 | 53.33134 | -2.32112 | 746 ft | 140 kts | 51° |
| 2026-04-23 20:15 | 53.33757 | -2.30857 | 566 ft | 140 kts | 51° |
| 2026-04-23 20:15 | 53.34371 | -2.29584 | 372 ft | 140 kts | 52° |
| 2026-04-23 20:15 | 53.34980 | -2.28315 | 237 ft | 135 kts | 52° |
| 2026-04-23 20:16 | 53.35477 | -2.27283 | 258 ft | 81 kts | 51° |
| 2026-04-23 20:16 | 53.35729 | -2.26764 | 267 ft | 30 kts | 51° |
| 2026-04-23 20:16 | 53.35837 | -2.26688 | 265 ft | 19 kts | 352° |
| 2026-04-23 20:16 | 53.35918 | -2.26710 | 258 ft | 2 kts | 351° |
| 2026-04-23 20:17 | 53.35929 | -2.26713 | 258 ft | 0 kts | 351° |
| 2026-04-23 20:17 | 53.35939 | -2.26725 | 258 ft | 3 kts | 307° |
| 2026-04-23 20:17 | 53.35933 | -2.26760 | 258 ft | 4 kts | 234° |
| 2026-04-23 20:17 | 53.35908 | -2.26817 | 258 ft | 8 kts | 234° |
| 2026-04-23 20:18 | 53.35869 | -2.26900 | 258 ft | 9 kts | 231° |
| 2026-04-23 20:18 | 53.35830 | -2.27000 | 258 ft | 12 kts | 237° |
| 2026-04-23 20:18 | 53.35794 | -2.27132 | 258 ft | 9 kts | 276° |
| 2026-04-23 20:18 | 53.35841 | -2.27214 | 258 ft | 11 kts | 345° |
| 2026-04-23 20:19 | 53.35879 | -2.27169 | 258 ft | 7 kts | 54° |